createdAt,value
2019-01-27T00:01:22.268Z,4.10
2019-01-27T00:03:54.068Z,4.10
2019-01-27T00:06:26.366Z,4.20
2019-01-27T00:08:58.987Z,4.10
2019-01-27T00:11:31.359Z,4.10
2019-01-27T00:14:03.306Z,4.10
2019-01-27T00:16:35.583Z,4.10
2019-01-27T00:19:07.605Z,4.00
2019-01-27T00:21:39.575Z,4.00
2019-01-27T00:24:11.959Z,4.00
2019-01-27T00:26:44.037Z,4.00
2019-01-27T00:29:16.099Z,4.00
2019-01-27T00:31:49.080Z,4.00
2019-01-27T00:34:21.135Z,4.00
2019-01-27T00:36:53.016Z,4.00
2019-01-27T00:39:24.908Z,4.00
2019-01-27T00:41:58.216Z,4.00
2019-01-27T00:44:30.261Z,4.00
2019-01-27T00:47:02.282Z,4.00
2019-01-27T00:49:34.442Z,4.00
2019-01-27T00:52:06.945Z,4.00
2019-01-27T00:54:38.854Z,4.00
2019-01-27T00:57:10.907Z,4.00
2019-01-27T00:59:42.749Z,4.00
2019-01-27T01:02:14.532Z,4.00
2019-01-27T01:04:46.548Z,4.00
2019-01-27T01:07:19.673Z,4.10
2019-01-27T01:09:51.901Z,4.10
2019-01-27T01:12:24.098Z,4.10
2019-01-27T01:14:56.113Z,4.10
2019-01-27T01:17:28.126Z,4.10
2019-01-27T01:20:00.085Z,4.10
2019-01-27T01:22:32.419Z,4.10
2019-01-27T01:25:08.656Z,4.00
2019-01-27T01:27:40.786Z,4.00
2019-01-27T01:30:14.971Z,4.00
2019-01-27T01:32:48.035Z,4.00
2019-01-27T01:35:20.172Z,4.00
2019-01-27T01:37:52.170Z,4.00
2019-01-27T01:40:24.206Z,4.00
2019-01-27T01:42:56.011Z,4.00
2019-01-27T01:45:29.761Z,4.00
2019-01-27T01:48:01.778Z,4.00
2019-01-27T01:50:33.901Z,4.00
2019-01-27T01:53:07.761Z,4.00
2019-01-27T01:55:39.787Z,4.00
2019-01-27T01:58:12.928Z,4.00
2019-01-27T02:00:45.246Z,4.00
2019-01-27T02:03:17.134Z,3.90
2019-01-27T02:05:49.044Z,3.90
2019-01-27T02:08:21.238Z,3.90
2019-01-27T02:10:53.136Z,3.90
2019-01-27T02:13:25.166Z,3.90
2019-01-27T02:16:06.329Z,3.90
2019-01-27T02:18:39.555Z,3.90
2019-01-27T02:21:11.928Z,3.90
2019-01-27T02:23:44.091Z,4.00
2019-01-27T02:26:16.204Z,4.00
2019-01-27T02:28:48.337Z,4.00
2019-01-27T02:31:20.463Z,4.00
2019-01-27T02:33:52.765Z,4.00
2019-01-27T02:36:26.013Z,4.00
2019-01-27T02:38:58.095Z,4.00
2019-01-27T02:41:30.269Z,4.10
2019-01-27T02:44:02.363Z,4.20
2019-01-27T02:46:35.642Z,4.10
2019-01-27T02:49:08.059Z,4.20
2019-01-27T02:51:40.188Z,4.20
2019-01-27T02:54:12.488Z,4.20
2019-01-27T02:56:44.467Z,4.20
2019-01-27T02:59:17.598Z,4.20
2019-01-27T03:01:49.767Z,4.30
2019-01-27T03:04:21.672Z,4.30
2019-01-27T03:07:11.640Z,4.30
2019-01-27T03:09:45.038Z,4.30
2019-01-27T03:12:17.013Z,4.30
2019-01-27T03:14:48.898Z,4.30
2019-01-27T03:17:21.670Z,4.30
2019-01-27T03:19:53.613Z,4.30
2019-01-27T03:22:26.683Z,4.20
2019-01-27T03:24:58.580Z,4.30
2019-01-27T03:27:30.518Z,4.30
2019-01-27T03:30:02.466Z,4.30
2019-01-27T03:32:34.532Z,4.30
2019-01-27T03:35:07.309Z,4.30
2019-01-27T03:37:39.420Z,4.30
2019-01-27T03:40:12.186Z,4.30
2019-01-27T03:42:45.354Z,4.30
2019-01-27T03:45:18.923Z,4.30
2019-01-27T03:47:50.805Z,4.20
2019-01-27T03:50:22.842Z,4.20
2019-01-27T03:52:55.128Z,4.10
2019-01-27T03:55:27.237Z,4.20
2019-01-27T03:57:59.535Z,4.10
2019-01-27T04:00:31.577Z,4.10
2019-01-27T04:03:03.590Z,4.20
2019-01-27T04:05:36.571Z,4.20
2019-01-27T04:08:09.291Z,4.20
2019-01-27T04:10:41.572Z,4.20
2019-01-27T04:13:13.631Z,4.10
2019-01-27T04:15:45.631Z,4.10
2019-01-27T04:18:17.885Z,4.10
2019-01-27T04:20:52.522Z,4.10
2019-01-27T04:23:24.631Z,4.10
2019-01-27T04:25:57.995Z,4.10
2019-01-27T04:28:29.925Z,4.00
2019-01-27T04:31:01.870Z,4.10
2019-01-27T04:33:33.819Z,4.00
2019-01-27T04:36:06.279Z,4.00
2019-01-27T04:38:38.259Z,4.00
2019-01-27T04:41:10.266Z,4.00
2019-01-27T04:43:42.350Z,4.00
2019-01-27T04:46:14.818Z,4.10
2019-01-27T04:48:46.704Z,4.10
2019-01-27T04:51:18.584Z,4.10
2019-01-27T04:53:51.506Z,4.10
2019-01-27T04:56:23.434Z,4.10
2019-01-27T04:58:56.350Z,4.10
2019-01-27T05:01:29.635Z,4.10
2019-01-27T05:04:13.067Z,4.00
2019-01-27T05:06:45.052Z,4.00
2019-01-27T05:09:17.030Z,4.00
2019-01-27T05:11:49.332Z,4.00
2019-01-27T05:14:21.395Z,4.00
2019-01-27T05:16:53.331Z,4.00
2019-01-27T05:19:25.484Z,4.00
2019-01-27T05:21:57.400Z,4.00
2019-01-27T05:24:29.457Z,4.00
2019-01-27T05:27:01.300Z,4.00
2019-01-27T05:29:33.406Z,4.00
2019-01-27T05:32:05.477Z,4.00
2019-01-27T05:34:37.499Z,4.00
2019-01-27T05:37:09.596Z,4.00
2019-01-27T05:39:42.783Z,4.10
2019-01-27T05:42:14.843Z,4.00
2019-01-27T05:44:46.742Z,4.00
2019-01-27T05:47:18.778Z,4.10
2019-01-27T05:49:50.781Z,4.10
2019-01-27T05:52:23.870Z,4.10
2019-01-27T05:54:57.148Z,4.10
2019-01-27T05:57:30.198Z,4.00
2019-01-27T06:00:03.531Z,4.00
2019-01-27T06:02:35.631Z,4.10
2019-01-27T06:05:08.261Z,4.10
2019-01-27T06:07:40.203Z,4.10
2019-01-27T06:10:13.562Z,4.10
2019-01-27T06:12:45.411Z,4.10
2019-01-27T06:15:17.615Z,4.10
2019-01-27T06:17:50.367Z,4.20
2019-01-27T06:20:22.939Z,4.20
2019-01-27T06:22:54.844Z,4.20
2019-01-27T06:25:26.593Z,4.20
2019-01-27T06:27:58.318Z,4.30
2019-01-27T06:30:30.176Z,4.30
2019-01-27T06:33:28.274Z,4.30
2019-01-27T06:36:00.144Z,4.30
2019-01-27T06:38:32.037Z,4.30
2019-01-27T06:41:03.914Z,4.30
2019-01-27T06:43:35.674Z,4.30
2019-01-27T06:46:07.890Z,4.30
2019-01-27T06:48:39.931Z,4.30
2019-01-27T06:51:12.377Z,4.30
2019-01-27T06:53:44.852Z,4.30
2019-01-27T06:56:16.999Z,4.30
2019-01-27T06:59:08.069Z,4.40
2019-01-27T07:01:58.385Z,4.40
2019-01-27T07:04:56.824Z,4.30
2019-01-27T07:07:56.445Z,4.40
2019-01-27T07:10:53.998Z,4.30
2019-01-27T07:13:34.601Z,4.30
2019-01-27T07:16:25.256Z,4.30
2019-01-27T07:19:11.830Z,4.20
2019-01-27T07:22:06.804Z,4.20
2019-01-27T07:24:48.371Z,4.30
2019-01-27T07:27:50.622Z,4.20
2019-01-27T07:30:33.528Z,4.20
2019-01-27T07:33:23.180Z,4.20
2019-01-27T07:36:14.406Z,4.20
2019-01-27T07:38:58.280Z,4.10
2019-01-27T07:41:52.179Z,4.10
2019-01-27T07:44:35.690Z,4.10
2019-01-27T07:47:26.298Z,4.10
2019-01-27T07:50:08.773Z,4.10
2019-01-27T07:52:59.359Z,4.10
2019-01-27T07:55:56.609Z,4.10
2019-01-27T07:58:45.954Z,4.10
2019-01-27T08:01:39.847Z,4.20
2019-01-27T08:04:29.149Z,4.20
2019-01-27T08:07:18.348Z,4.20
2019-01-27T08:10:27.400Z,4.20
2019-01-27T08:13:19.065Z,4.20
2019-01-27T08:16:21.622Z,4.20
2019-01-27T08:19:05.311Z,4.20
2019-01-27T08:21:55.141Z,4.30
2019-01-27T08:24:47.111Z,4.30
2019-01-27T08:27:46.997Z,4.40
2019-01-27T08:30:44.691Z,4.40
2019-01-27T08:36:40.829Z,4.50
2019-01-27T08:39:38.273Z,4.50
2019-01-27T08:42:29.994Z,4.50
2019-01-27T08:45:39.159Z,4.70
2019-01-27T08:48:15.333Z,4.80
2019-01-27T08:50:48.477Z,4.90
2019-01-27T08:53:21.443Z,5.00
2019-01-27T08:55:53.328Z,5.00
2019-01-27T08:58:25.214Z,5.20
2019-01-27T09:01:10.080Z,5.30
2019-01-27T09:03:48.882Z,5.40
2019-01-27T09:06:48.874Z,5.50
2019-01-27T09:09:39.879Z,5.60
2019-01-27T09:12:33.248Z,5.80
2019-01-27T09:15:24.048Z,5.90
2019-01-27T09:18:20.554Z,5.90
2019-01-27T09:21:09.944Z,6.00
2019-01-27T09:24:06.957Z,6.20
2019-01-27T09:26:49.837Z,6.30
2019-01-27T09:29:41.807Z,6.40
2019-01-27T09:32:25.234Z,6.50
2019-01-27T09:35:20.093Z,6.60
2019-01-27T09:38:10.147Z,6.70
2019-01-27T09:40:59.852Z,6.80
2019-01-27T09:44:08.944Z,6.80
2019-01-27T09:47:05.882Z,6.80
2019-01-27T09:50:03.017Z,6.70
2019-01-27T09:52:59.642Z,6.70
2019-01-27T09:55:50.301Z,6.70
2019-01-27T09:58:46.946Z,6.80
2019-01-27T10:01:33.518Z,6.70
2019-01-27T10:04:14.534Z,6.70
2019-01-27T10:07:14.254Z,6.70
2019-01-27T10:10:11.474Z,6.70
2019-01-27T10:13:00.486Z,6.70
2019-01-27T10:15:53.860Z,6.70
2019-01-27T10:18:42.139Z,6.90
2019-01-27T10:21:26.097Z,7.10
2019-01-27T10:24:17.788Z,7.20
2019-01-27T10:27:08.514Z,7.20
2019-01-27T10:30:19.878Z,7.30
2019-01-27T10:33:06.724Z,7.50
2019-01-27T10:35:52.732Z,7.60
2019-01-27T10:38:39.063Z,7.70
2019-01-27T10:41:20.824Z,7.70
2019-01-27T10:44:06.292Z,7.60
2019-01-27T10:47:04.315Z,7.50
2019-01-27T10:49:50.590Z,7.50
2019-01-27T10:52:44.517Z,7.50
2019-01-27T10:55:38.100Z,7.50
2019-01-27T10:58:31.650Z,7.40
2019-01-27T11:01:30.120Z,7.60
2019-01-27T11:04:31.170Z,7.70
2019-01-27T11:07:13.862Z,7.70
2019-01-27T11:10:03.118Z,7.90
2019-01-27T11:12:46.930Z,8.00
2019-01-27T11:15:42.211Z,8.10
2019-01-27T11:18:32.482Z,8.10
2019-01-27T11:21:25.894Z,8.30
2019-01-27T11:24:16.734Z,8.20
2019-01-27T11:27:11.551Z,8.00
2019-01-27T11:29:56.160Z,7.90
2019-01-27T11:32:40.937Z,7.70
2019-01-27T11:35:44.245Z,7.60
2019-01-27T11:38:34.839Z,7.60
2019-01-27T11:41:42.838Z,7.60
2019-01-27T11:44:32.871Z,7.60
2019-01-27T11:47:22.477Z,7.80
2019-01-27T11:50:10.307Z,8.20
2019-01-27T11:52:46.913Z,8.90
2019-01-27T11:55:19.534Z,9.40
2019-01-27T11:57:52.095Z,9.70
2019-01-27T12:00:30.576Z,9.90
2019-01-27T12:03:04.743Z,9.90
2019-01-27T12:05:38.198Z,9.90
2019-01-27T12:08:10.274Z,9.80
2019-01-27T12:10:42.594Z,9.80
2019-01-27T12:13:16.557Z,9.80
2019-01-27T12:15:48.345Z,9.80
2019-01-27T12:18:24.468Z,9.80
2019-01-27T12:20:56.426Z,9.70
2019-01-27T12:23:28.206Z,9.60
2019-01-27T12:26:00.078Z,9.70
2019-01-27T12:28:31.839Z,9.70
2019-01-27T12:31:03.661Z,9.80
2019-01-27T12:33:35.708Z,9.80
2019-01-27T12:36:09.084Z,10.00
2019-01-27T12:38:41.012Z,10.20
2019-01-27T12:41:13.188Z,10.30
2019-01-27T12:43:45.364Z,10.40
2019-01-27T12:46:17.262Z,10.50
2019-01-27T12:48:49.601Z,10.60
2019-01-27T12:51:21.806Z,10.80
2019-01-27T12:53:54.133Z,11.10
2019-01-27T12:56:26.995Z,11.40
2019-01-27T12:58:58.990Z,11.70
2019-01-27T13:01:32.729Z,11.90
2019-01-27T13:04:07.733Z,12.00
2019-01-27T13:06:41.055Z,12.10
2019-01-27T13:09:14.980Z,12.00
2019-01-27T13:11:48.042Z,11.90
2019-01-27T13:14:20.050Z,11.60
2019-01-27T13:16:54.239Z,11.40
2019-01-27T13:19:26.242Z,11.20
2019-01-27T13:21:58.172Z,11.00
2019-01-27T13:24:31.482Z,10.80
2019-01-27T13:27:03.505Z,10.70
2019-01-27T13:29:36.391Z,10.60
2019-01-27T13:32:08.561Z,10.60
2019-01-27T13:34:40.672Z,10.50
2019-01-27T13:37:12.556Z,10.40
2019-01-27T13:39:45.787Z,10.40
2019-01-27T13:42:17.876Z,10.30
2019-01-27T13:44:50.827Z,10.10
2019-01-27T13:47:23.995Z,9.90
2019-01-27T13:49:56.558Z,9.70
2019-01-27T13:52:30.014Z,9.70
2019-01-27T13:55:03.195Z,9.90
2019-01-27T13:57:35.340Z,10.10
2019-01-27T14:00:09.932Z,10.30
2019-01-27T14:02:44.428Z,10.20
2019-01-27T14:05:18.060Z,10.20
2019-01-27T14:07:50.601Z,10.10
2019-01-27T14:10:24.935Z,10.10
2019-01-27T14:12:57.017Z,10.00
2019-01-27T14:15:31.031Z,9.90
2019-01-27T14:18:03.226Z,9.80
2019-01-27T14:20:35.551Z,9.70
2019-01-27T14:23:09.185Z,9.80
2019-01-27T14:25:41.308Z,9.80
2019-01-27T14:28:14.329Z,10.00
2019-01-27T14:30:46.497Z,10.30
2019-01-27T14:33:19.337Z,10.60
2019-01-27T14:35:51.456Z,11.20
2019-01-27T14:38:26.571Z,11.60
2019-01-27T14:40:58.751Z,11.80
2019-01-27T14:43:30.875Z,11.50
2019-01-27T14:46:03.046Z,11.10
2019-01-27T14:48:35.275Z,10.80
2019-01-27T14:51:07.303Z,10.60
2019-01-27T14:53:39.926Z,10.40
2019-01-27T14:56:12.012Z,10.10
2019-01-27T14:58:45.367Z,9.80
2019-01-27T15:01:20.162Z,9.50
2019-01-27T15:03:54.882Z,9.30
2019-01-27T15:06:27.066Z,9.20
2019-01-27T15:09:00.384Z,9.10
2019-01-27T15:11:34.398Z,9.00
2019-01-27T15:14:06.990Z,9.00
2019-01-27T15:16:39.095Z,8.90
2019-01-27T15:19:11.322Z,8.90
2019-01-27T15:21:43.359Z,8.90
2019-01-27T15:24:15.477Z,8.80
2019-01-27T15:26:47.787Z,8.70
2019-01-27T15:29:22.031Z,8.60
2019-01-27T15:31:54.599Z,8.60
2019-01-27T15:34:26.759Z,8.50
2019-01-27T15:36:58.854Z,8.40
2019-01-27T15:39:31.214Z,8.40
2019-01-27T15:42:03.388Z,8.20
2019-01-27T15:44:37.033Z,8.10
2019-01-27T15:47:10.472Z,8.00
2019-01-27T15:49:42.698Z,7.90
2019-01-27T15:52:14.890Z,7.80
2019-01-27T15:54:47.382Z,7.70
2019-01-27T15:57:19.456Z,7.70
2019-01-27T15:59:52.474Z,7.70
2019-01-27T16:02:25.813Z,7.70
2019-01-27T16:04:57.907Z,7.60
2019-01-27T16:07:30.874Z,7.60
2019-01-27T16:10:03.075Z,7.60
2019-01-27T16:12:35.508Z,7.50
2019-01-27T16:15:09.930Z,7.40
2019-01-27T16:17:43.018Z,7.40
2019-01-27T16:20:15.921Z,7.30
2019-01-27T16:22:58.766Z,7.20
2019-01-27T16:25:34.147Z,7.20
2019-01-27T16:28:06.913Z,7.20
2019-01-27T16:31:03.884Z,7.30
2019-01-27T16:33:53.383Z,7.30
2019-01-27T16:36:26.812Z,7.30
2019-01-27T16:38:59.520Z,7.30
2019-01-27T16:41:31.659Z,7.30
2019-01-27T16:44:05.384Z,7.30
2019-01-27T16:46:37.890Z,7.30
2019-01-27T16:49:12.767Z,7.30
2019-01-27T16:51:49.218Z,7.20
2019-01-27T16:54:22.335Z,7.30
2019-01-27T16:56:54.780Z,7.30
2019-01-27T16:59:28.951Z,7.30
2019-01-27T17:02:03.651Z,7.30
2019-01-27T17:04:36.106Z,7.30
2019-01-27T17:07:08.440Z,7.20
2019-01-27T17:09:41.252Z,7.20
2019-01-27T17:12:13.828Z,7.20
2019-01-27T17:14:46.297Z,7.20
2019-01-27T17:17:18.667Z,7.10
2019-01-27T17:19:50.740Z,7.20
2019-01-27T17:22:23.578Z,7.10
2019-01-27T17:24:55.986Z,7.10
2019-01-27T17:27:30.022Z,7.00
2019-01-27T17:30:02.527Z,7.00
2019-01-27T17:32:37.821Z,7.00
2019-01-27T17:35:12.185Z,7.00
2019-01-27T17:37:45.932Z,7.00
2019-01-27T17:40:18.434Z,6.90
2019-01-27T17:42:52.843Z,6.90
2019-01-27T17:45:26.360Z,6.80
2019-01-27T17:47:59.340Z,6.70
2019-01-27T17:50:31.607Z,6.70
2019-01-27T17:53:04.292Z,6.50
2019-01-27T17:55:42.868Z,6.40
2019-01-27T17:58:37.953Z,6.30
2019-01-27T18:01:36.316Z,6.20
2019-01-27T18:04:28.974Z,6.20
2019-01-27T18:07:21.274Z,6.10
2019-01-27T18:10:18.250Z,6.10
2019-01-27T18:13:11.512Z,6.10
2019-01-27T18:15:44.786Z,6.10
2019-01-27T18:18:17.223Z,6.10
2019-01-27T18:20:49.383Z,6.20
2019-01-27T18:23:21.701Z,6.20
2019-01-27T18:25:53.803Z,6.20
2019-01-27T18:28:26.243Z,6.30
2019-01-27T18:30:58.386Z,6.30
2019-01-27T18:33:30.382Z,6.20
2019-01-27T18:36:03.755Z,6.10
2019-01-27T18:38:35.822Z,6.00
2019-01-27T18:41:07.874Z,5.90
2019-01-27T18:43:41.395Z,5.90
2019-01-27T18:46:14.491Z,5.90
2019-01-27T18:48:47.526Z,5.90
2019-01-27T18:51:20.646Z,5.90
2019-01-27T18:54:15.785Z,5.90
2019-01-27T18:57:15.461Z,5.90
2019-01-27T19:00:08.951Z,5.80
2019-01-27T19:03:01.553Z,5.90
2019-01-27T19:05:46.894Z,5.90
2019-01-27T19:08:36.375Z,5.90
2019-01-27T19:11:25.973Z,5.80
2019-01-27T19:14:22.863Z,5.80
2019-01-27T19:17:13.494Z,5.80
2019-01-27T19:20:13.273Z,5.70
2019-01-27T19:22:59.108Z,5.70
2019-01-27T19:26:07.958Z,5.80
2019-01-27T19:28:58.614Z,5.80
2019-01-27T19:31:57.856Z,5.80
2019-01-27T19:34:51.471Z,5.70
2019-01-27T19:37:32.377Z,5.60
2019-01-27T19:40:29.396Z,5.50
2019-01-27T19:43:35.317Z,5.40
2019-01-27T19:46:18.990Z,5.40
2019-01-27T19:49:09.899Z,5.30
2019-01-27T19:52:00.521Z,5.30
2019-01-27T19:55:02.014Z,5.40
2019-01-27T19:57:53.874Z,5.40
2019-01-27T20:00:42.177Z,5.40
2019-01-27T20:03:28.613Z,5.50
2019-01-27T20:06:26.220Z,5.50
2019-01-27T20:09:27.501Z,5.50
2019-01-27T20:12:33.778Z,5.50
2019-01-27T20:15:14.535Z,5.50
2019-01-27T20:18:03.317Z,5.50
2019-01-27T20:21:03.086Z,5.40
2019-01-27T20:23:50.034Z,5.40
2019-01-27T20:26:59.883Z,5.40
2019-01-27T20:29:44.512Z,5.40
2019-01-27T20:32:34.528Z,5.50
2019-01-27T20:35:30.026Z,5.50
2019-01-27T20:38:27.835Z,5.50
2019-01-27T20:41:18.617Z,5.50
2019-01-27T20:44:12.297Z,5.40
2019-01-27T20:46:55.898Z,5.40
2019-01-27T20:49:55.666Z,5.30
2019-01-27T20:52:50.901Z,5.30
2019-01-27T20:55:31.937Z,5.40
2019-01-27T20:58:21.545Z,5.40
2019-01-27T21:01:14.761Z,5.30
2019-01-27T21:03:57.350Z,5.30
2019-01-27T21:06:47.999Z,5.30
2019-01-27T21:09:57.958Z,5.30
2019-01-27T21:12:54.450Z,5.30
2019-01-27T21:15:44.363Z,5.30
2019-01-27T21:18:55.123Z,5.40
2019-01-27T21:21:27.157Z,5.40
2019-01-27T21:23:59.128Z,5.40
2019-01-27T21:26:32.408Z,5.40
2019-01-27T21:29:04.580Z,5.50
2019-01-27T21:31:37.534Z,5.40
2019-01-27T21:34:09.420Z,5.40
2019-01-27T21:36:41.320Z,5.40
2019-01-27T21:39:13.281Z,5.40
2019-01-27T21:41:45.150Z,5.40
2019-01-27T21:44:17.044Z,5.40
2019-01-27T21:46:48.881Z,5.40
2019-01-27T21:49:20.721Z,5.40
2019-01-27T21:51:52.607Z,5.40
2019-01-27T21:54:24.383Z,5.40
2019-01-27T21:56:56.266Z,5.50
2019-01-27T21:59:28.191Z,5.50
2019-01-27T22:02:01.076Z,5.50
2019-01-27T22:04:34.547Z,5.50
2019-01-27T22:07:07.496Z,5.50
2019-01-27T22:09:40.686Z,5.50
2019-01-27T22:12:12.458Z,5.50
2019-01-27T22:14:44.389Z,5.50
2019-01-27T22:17:18.570Z,5.50
2019-01-27T22:19:51.686Z,5.40
2019-01-27T22:22:23.602Z,5.40
2019-01-27T22:24:56.678Z,5.50
2019-01-27T22:27:29.653Z,5.40
2019-01-27T22:30:05.329Z,5.40
2019-01-27T22:32:37.185Z,5.30
2019-01-27T22:35:09.284Z,5.30
2019-01-27T22:37:42.452Z,5.30
2019-01-27T22:40:15.614Z,5.20
2019-01-27T22:42:47.470Z,5.20
2019-01-27T22:45:19.311Z,5.20
2019-01-27T22:47:51.208Z,5.10
2019-01-27T22:50:23.089Z,5.10
2019-01-27T22:52:55.006Z,5.10
2019-01-27T22:55:26.804Z,5.10
2019-01-27T22:57:58.709Z,5.00
2019-01-27T23:00:55.165Z,5.00
2019-01-27T23:03:27.238Z,5.00
2019-01-27T23:05:59.241Z,4.90
2019-01-27T23:08:32.315Z,4.90
2019-01-27T23:11:04.299Z,4.90
2019-01-27T23:13:37.469Z,4.90
2019-01-27T23:16:10.466Z,4.90
2019-01-27T23:18:42.247Z,4.90
2019-01-27T23:21:15.502Z,4.90
2019-01-27T23:23:50.066Z,4.90
2019-01-27T23:26:23.246Z,4.90
2019-01-27T23:28:57.841Z,4.90
2019-01-27T23:31:31.024Z,4.80
2019-01-27T23:34:02.943Z,4.80
2019-01-27T23:36:34.808Z,4.80
2019-01-27T23:39:09.795Z,4.80
2019-01-27T23:41:41.951Z,4.80
2019-01-27T23:44:14.506Z,4.70
2019-01-27T23:46:47.910Z,4.70
2019-01-27T23:49:19.722Z,4.70
2019-01-27T23:51:51.498Z,4.60
2019-01-27T23:54:23.330Z,4.50
2019-01-27T23:56:55.218Z,4.50
2019-01-27T23:59:26.985Z,4.50
